Okto — ZGDZ2 — position and weather

sailwx.info

Track history (hours):
 
Tides and Currents Weather Stations Pressure Air Temp Water Temp Dewpoint Dewpoint Depression Visibility Wind Speed Wind Dir Waves Ship Positions

Okto

Last reported at 2018-Jun-24 12:31 UTC. Time now 2018-Jun-24 12:26 UTC.
Position N 37°27' E 025°20'.

Length 66 m; draft 3 m.

Type: Pleasure craft. MMSI: 319064900.

Date/timePositionNaut miles runAvg speedWind from/ knotsBaromVisibWave heightAir tempDewpointWater temp
2018-Jun-24 12:31N 37°27' E 025°20'0 0.0
2018-Jun-24 12:01N 37°27' E 025°20'0 0.0
2018-Jun-24 11:31N 37°27' E 025°20'0 0.0
2018-Jun-24 11:01N 37°27' E 025°20'0 0.0
2018-Jun-24 10:31N 37°27' E 025°20'0 0.0
2018-Jun-24 10:01N 37°27' E 025°20'0 0.0
2018-Jun-24 09:31N 37°27' E 025°20'0 0.0
2018-Jun-24 09:00N 37°27' E 025°20'0 0.0
2018-Jun-24 08:30N 37°27' E 025°20'0 0.0
2018-Jun-24 08:01N 37°27' E 025°20'0 0.0
2018-Jun-24 07:31N 37°27' E 025°20'0 0.1
2018-Jun-24 07:00N 37°27' E 025°20'1 1.5
2018-Jun-24 06:30N 37°27' E 025°19'2 4.9
2018-Jun-24 06:00N 37°29' E 025°17'511.0
2018-Jun-24 05:30N 37°27' E 025°10'810.2
2018-Jun-24 04:46N 37°23' E 025°02'310.3
2018-Jun-24 04:30N 37°22' E 024°59'510.5
2018-Jun-24 04:00N 37°20' E 024°53'510.4
2018-Jun-24 03:30N 37°19' E 024°46'55 9.7
2018-Jun-23 21:46N 37°23' E 023°37'7 0.8
2018-Jun-23 13:37N 37°22' E 023°28'512.3
2018-Jun-23 13:14N 37°25' E 023°33'1212.2
2018-Jun-23 12:15N 37°36' E 023°40'412.0
2018-Jun-23 11:57N 37°39' E 023°42'512.2
2018-Jun-23 11:30N 37°44' E 023°40'612.5
2018-Jun-23 11:00N 37°50' E 023°37'612.2
2018-Jun-23 10:30N 37°56' E 023°39'0 0.7
2018-Jun-23 09:59N 37°56' E 023°39'0 0.0
2018-Jun-23 09:30N 37°56' E 023°39'0 0.0
2018-Jun-23 09:00N 37°56' E 023°39'0 0.0
2018-Jun-23 08:28N 37°56' E 023°39'0 0.0
2018-Jun-23 07:55N 37°56' E 023°39'0 0.0
2018-Jun-23 07:29N 37°56' E 023°39'0 0.0
2018-Jun-23 06:58N 37°56' E 023°39'0 0.0
2018-Jun-23 06:30N 37°56' E 023°39'0 0.0
2018-Jun-23 06:00N 37°56' E 023°39'0 0.0
2018-Jun-23 05:29N 37°56' E 023°39'0 0.0
2018-Jun-23 04:59N 37°56' E 023°39'0 0.0
2018-Jun-23 04:30N 37°56' E 023°39'0 0.0
2018-Jun-23 03:54N 37°56' E 023°39'0 0.0
2018-Jun-23 03:30N 37°56' E 023°39'0 0.0
2018-Jun-23 03:00N 37°56' E 023°39'0 0.0
2018-Jun-23 02:29N 37°56' E 023°39'0 0.0
2018-Jun-23 01:58N 37°56' E 023°39'0 0.0
2018-Jun-23 01:29N 37°56' E 023°39'0 0.0
2018-Jun-23 00:58N 37°56' E 023°39'0 0.0
2018-Jun-23 00:29N 37°56' E 023°39'0 0.0
2018-Jun-22 23:58N 37°56' E 023°39'0 0.0
2018-Jun-22 23:29N 37°56' E 023°39'0 0.0
2018-Jun-22 22:58N 37°56' E 023°39'0 0.0
2018-Jun-22 22:28N 37°56' E 023°39'0 0.0
2018-Jun-22 22:00N 37°56' E 023°39'0 0.0
2018-Jun-22 21:30N 37°56' E 023°39'0 0.0
2018-Jun-22 21:00N 37°56' E 023°39'0 0.0
2018-Jun-22 20:30N 37°56' E 023°39'0 0.0
2018-Jun-22 19:58N 37°56' E 023°39'0 0.0
2018-Jun-22 19:24N 37°56' E 023°39'0 0.0
2018-Jun-22 19:00N 37°56' E 023°39'0 0.0
2018-Jun-22 18:28N 37°56' E 023°39'0 0.0
2018-Jun-22 18:00N 37°56' E 023°39'0 0.0
2018-Jun-22 17:30N 37°56' E 023°39'0 0.0
2018-Jun-22 17:00N 37°56' E 023°39'0 0.0
2018-Jun-22 16:28N 37°56' E 023°39'0 0.0
2018-Jun-22 15:58N 37°56' E 023°39'0 0.0
2018-Jun-22 15:29N 37°56' E 023°39'0 0.0
2018-Jun-22 14:55N 37°56' E 023°39'0 0.0
2018-Jun-22 14:28N 37°56' E 023°39'0 0.0
2018-Jun-22 14:00N 37°56' E 023°39'0 0.0
2018-Jun-22 13:30N 37°56' E 023°39'0 0.0
2018-Jun-22 12:58N 37°56' E 023°39'0 0.0
2018-Jun-22 12:28N 37°56' E 023°39'0 0.0
2018-Jun-22 12:01N 37°56' E 023°39'0 0.0
2018-Jun-22 11:28N 37°56' E 023°39'0 0.0
2018-Jun-22 11:00N 37°56' E 023°39'0 0.0
2018-Jun-22 10:31N 37°56' E 023°39'2 4.1
2018-Jun-22 10:00N 37°55' E 023°37'713.4
2018-Jun-22 09:30N 37°52' E 023°29'713.3
2018-Jun-22 09:00N 37°52' E 023°20'713.9
2018-Jun-22 08:30N 37°53' E 023°12'713.7
2018-Jun-22 08:00N 37°54' E 023°03'5 5.7
2018-Jun-22 07:10N 37°57' E 022°58'1 5.6
2018-Jun-22 07:00N 37°57' E 022°57'3 5.1
2018-Jun-22 06:30N 37°59' E 022°55'713.5
2018-Jun-22 06:00N 38°03' E 022°48'  
Track history (hours):
 
Tides and Currents Weather Stations Pressure Air Temp Water Temp Dewpoint Dewpoint Depression Visibility Wind Speed Wind Dir Waves Ship Positions

Okto

Last reported at 2018-Jun-24 12:31 UTC. Time now 2018-Jun-24 12:26 UTC.
Position N 37°27' E 025°20'.

Length 66 m; draft 3 m.

Type: Pleasure craft. MMSI: 319064900.

Date/timePositionNaut miles runAvg speedWind from/ knotsBaromVisibWave heightAir tempDewpointWater temp
2018-Jun-24 12:31N 37°27' E 025°20'0 0.0
2018-Jun-24 12:01N 37°27' E 025°20'0 0.0
2018-Jun-24 11:31N 37°27' E 025°20'0 0.0
2018-Jun-24 11:01N 37°27' E 025°20'0 0.0
2018-Jun-24 10:31N 37°27' E 025°20'0 0.0
2018-Jun-24 10:01N 37°27' E 025°20'0 0.0
2018-Jun-24 09:31N 37°27' E 025°20'0 0.0
2018-Jun-24 09:00N 37°27' E 025°20'0 0.0
2018-Jun-24 08:30N 37°27' E 025°20'0 0.0
2018-Jun-24 08:01N 37°27' E 025°20'0 0.0
2018-Jun-24 07:31N 37°27' E 025°20'0 0.1
2018-Jun-24 07:00N 37°27' E 025°20'1 1.5
2018-Jun-24 06:30N 37°27' E 025°19'2 4.9
2018-Jun-24 06:00N 37°29' E 025°17'511.0
2018-Jun-24 05:30N 37°27' E 025°10'810.2
2018-Jun-24 04:46N 37°23' E 025°02'310.3
2018-Jun-24 04:30N 37°22' E 024°59'510.5
2018-Jun-24 04:00N 37°20' E 024°53'510.4
2018-Jun-24 03:30N 37°19' E 024°46'55 9.7
2018-Jun-23 21:46N 37°23' E 023°37'7 0.8
2018-Jun-23 13:37N 37°22' E 023°28'512.3
2018-Jun-23 13:14N 37°25' E 023°33'1212.2
2018-Jun-23 12:15N 37°36' E 023°40'412.0
2018-Jun-23 11:57N 37°39' E 023°42'512.2
2018-Jun-23 11:30N 37°44' E 023°40'612.5
2018-Jun-23 11:00N 37°50' E 023°37'612.2
2018-Jun-23 10:30N 37°56' E 023°39'0 0.7
2018-Jun-23 09:59N 37°56' E 023°39'0 0.0
2018-Jun-23 09:30N 37°56' E 023°39'0 0.0
2018-Jun-23 09:00N 37°56' E 023°39'0 0.0
2018-Jun-23 08:28N 37°56' E 023°39'0 0.0
2018-Jun-23 07:55N 37°56' E 023°39'0 0.0
2018-Jun-23 07:29N 37°56' E 023°39'0 0.0
2018-Jun-23 06:58N 37°56' E 023°39'0 0.0
2018-Jun-23 06:30N 37°56' E 023°39'0 0.0
2018-Jun-23 06:00N 37°56' E 023°39'0 0.0
2018-Jun-23 05:29N 37°56' E 023°39'0 0.0
2018-Jun-23 04:59N 37°56' E 023°39'0 0.0
2018-Jun-23 04:30N 37°56' E 023°39'0 0.0
2018-Jun-23 03:54N 37°56' E 023°39'0 0.0
2018-Jun-23 03:30N 37°56' E 023°39'0 0.0
2018-Jun-23 03:00N 37°56' E 023°39'0 0.0
2018-Jun-23 02:29N 37°56' E 023°39'0 0.0
2018-Jun-23 01:58N 37°56' E 023°39'0 0.0
2018-Jun-23 01:29N 37°56' E 023°39'0 0.0
2018-Jun-23 00:58N 37°56' E 023°39'0 0.0
2018-Jun-23 00:29N 37°56' E 023°39'0 0.0
2018-Jun-22 23:58N 37°56' E 023°39'0 0.0
2018-Jun-22 23:29N 37°56' E 023°39'0 0.0
2018-Jun-22 22:58N 37°56' E 023°39'0 0.0
2018-Jun-22 22:28N 37°56' E 023°39'0 0.0
2018-Jun-22 22:00N 37°56' E 023°39'0 0.0
2018-Jun-22 21:30N 37°56' E 023°39'0 0.0
2018-Jun-22 21:00N 37°56' E 023°39'0 0.0
2018-Jun-22 20:30N 37°56' E 023°39'0 0.0
2018-Jun-22 19:58N 37°56' E 023°39'0 0.0
2018-Jun-22 19:24N 37°56' E 023°39'0 0.0
2018-Jun-22 19:00N 37°56' E 023°39'0 0.0
2018-Jun-22 18:28N 37°56' E 023°39'0 0.0
2018-Jun-22 18:00N 37°56' E 023°39'0 0.0
2018-Jun-22 17:30N 37°56' E 023°39'0 0.0
2018-Jun-22 17:00N 37°56' E 023°39'0 0.0
2018-Jun-22 16:28N 37°56' E 023°39'0 0.0
2018-Jun-22 15:58N 37°56' E 023°39'0 0.0
2018-Jun-22 15:29N 37°56' E 023°39'0 0.0
2018-Jun-22 14:55N 37°56' E 023°39'0 0.0
2018-Jun-22 14:28N 37°56' E 023°39'0 0.0
2018-Jun-22 14:00N 37°56' E 023°39'0 0.0
2018-Jun-22 13:30N 37°56' E 023°39'0 0.0
2018-Jun-22 12:58N 37°56' E 023°39'0 0.0
2018-Jun-22 12:28N 37°56' E 023°39'0 0.0
2018-Jun-22 12:01N 37°56' E 023°39'0 0.0
2018-Jun-22 11:28N 37°56' E 023°39'0 0.0
2018-Jun-22 11:00N 37°56' E 023°39'0 0.0
2018-Jun-22 10:31N 37°56' E 023°39'2 4.1
2018-Jun-22 10:00N 37°55' E 023°37'713.4
2018-Jun-22 09:30N 37°52' E 023°29'713.3
2018-Jun-22 09:00N 37°52' E 023°20'713.9
2018-Jun-22 08:30N 37°53' E 023°12'713.7
2018-Jun-22 08:00N 37°54' E 023°03'5 5.7
2018-Jun-22 07:10N 37°57' E 022°58'1 5.6
2018-Jun-22 07:00N 37°57' E 022°57'3 5.1
2018-Jun-22 06:30N 37°59' E 022°55'713.5
2018-Jun-22 06:00N 38°03' E 022°48'  

Dump ship's entire track history